sensor_id;sensor_type;location;lat;lon;timestamp;pressure;altitude;pressure_sealevel;temperature;humidity
36788;BME280;22738;45.560;9.434;2023-09-07T00:04:44;100322.25;;;20.46;100.00
36788;BME280;22738;45.560;9.434;2023-09-07T00:11:25;100320.31;;;20.48;100.00
36788;BME280;22738;45.560;9.434;2023-09-07T00:18:06;100323.72;;;20.31;100.00
36788;BME280;22738;45.560;9.434;2023-09-07T00:24:47;100329.78;;;20.41;100.00
36788;BME280;22738;45.560;9.434;2023-09-07T00:31:28;100330.75;;;20.40;100.00
36788;BME280;22738;45.560;9.434;2023-09-07T00:38:09;100326.19;;;20.42;100.00
36788;BME280;22738;45.560;9.434;2023-09-07T00:44:53;100323.38;;;20.26;100.00
36788;BME280;22738;45.560;9.434;2023-09-07T00:51:35;100326.53;;;20.20;100.00
36788;BME280;22738;45.560;9.434;2023-09-07T00:58:16;100318.28;;;20.15;100.00
36788;BME280;22738;45.560;9.434;2023-09-07T01:04:57;100317.53;;;20.22;100.00
36788;BME280;22738;45.560;9.434;2023-09-07T01:11:38;100328.09;;;20.22;100.00
36788;BME280;22738;45.560;9.434;2023-09-07T01:18:19;100320.72;;;20.26;100.00
36788;BME280;22738;45.560;9.434;2023-09-07T01:25:01;100318.13;;;20.16;100.00
36788;BME280;22738;45.560;9.434;2023-09-07T01:31:43;100322.09;;;20.20;100.00
36788;BME280;22738;45.560;9.434;2023-09-07T01:38:24;100321.28;;;20.20;100.00
36788;BME280;22738;45.560;9.434;2023-09-07T01:45:05;100315.63;;;20.15;100.00
36788;BME280;22738;45.560;9.434;2023-09-07T01:51:46;100316.84;;;20.20;100.00
36788;BME280;22738;45.560;9.434;2023-09-07T01:58:27;100317.97;;;20.18;100.00
36788;BME280;22738;45.560;9.434;2023-09-07T02:05:08;100317.97;;;20.18;100.00
36788;BME280;22738;45.560;9.434;2023-09-07T02:11:50;100312.28;;;20.13;100.00
36788;BME280;22738;45.560;9.434;2023-09-07T02:18:32;100306.00;;;20.06;100.00
36788;BME280;22738;45.560;9.434;2023-09-07T02:25:13;100319.03;;;19.98;100.00
36788;BME280;22738;45.560;9.434;2023-09-07T02:31:55;100314.06;;;19.94;100.00
36788;BME280;22738;45.560;9.434;2023-09-07T02:38:37;100313.97;;;19.86;100.00
36788;BME280;22738;45.560;9.434;2023-09-07T02:45:18;100320.63;;;19.81;100.00
36788;BME280;22738;45.560;9.434;2023-09-07T02:51:59;100314.16;;;19.75;100.00
36788;BME280;22738;45.560;9.434;2023-09-07T02:58:40;100319.13;;;19.78;100.00
36788;BME280;22738;45.560;9.434;2023-09-07T03:05:21;100328.25;;;19.74;100.00
36788;BME280;22738;45.560;9.434;2023-09-07T03:12:02;100317.38;;;19.69;100.00
36788;BME280;22738;45.560;9.434;2023-09-07T03:18:43;100325.09;;;19.71;100.00
36788;BME280;22738;45.560;9.434;2023-09-07T03:25:25;100328.44;;;19.63;100.00
36788;BME280;22738;45.560;9.434;2023-09-07T03:32:06;100329.81;;;19.67;100.00
36788;BME280;22738;45.560;9.434;2023-09-07T03:38:47;100333.44;;;19.66;100.00
36788;BME280;22738;45.560;9.434;2023-09-07T03:45:29;100326.81;;;19.62;100.00
36788;BME280;22738;45.560;9.434;2023-09-07T03:52:11;100322.91;;;19.66;100.00
36788;BME280;22738;45.560;9.434;2023-09-07T03:58:52;100336.22;;;19.65;100.00
36788;BME280;22738;45.560;9.434;2023-09-07T04:05:33;100316.28;;;19.62;100.00
36788;BME280;22738;45.560;9.434;2023-09-07T04:12:14;100317.53;;;19.58;100.00
36788;BME280;22738;45.560;9.434;2023-09-07T04:18:55;100313.53;;;19.45;100.00
36788;BME280;22738;45.560;9.434;2023-09-07T04:25:36;100308.34;;;19.35;100.00
36788;BME280;22738;45.560;9.434;2023-09-07T04:32:17;100316.31;;;19.34;100.00
36788;BME280;22738;45.560;9.434;2023-09-07T04:38:58;100308.16;;;19.27;100.00
36788;BME280;22738;45.560;9.434;2023-09-07T04:45:45;100311.06;;;19.24;100.00
36788;BME280;22738;45.560;9.434;2023-09-07T04:52:27;100318.00;;;19.25;100.00
36788;BME280;22738;45.560;9.434;2023-09-07T04:59:08;100327.94;;;19.31;100.00
36788;BME280;22738;45.560;9.434;2023-09-07T05:05:53;100328.63;;;19.33;100.00
36788;BME280;22738;45.560;9.434;2023-09-07T05:12:34;100328.50;;;19.44;100.00
36788;BME280;22738;45.560;9.434;2023-09-07T05:19:15;100334.97;;;19.59;100.00
36788;BME280;22738;45.560;9.434;2023-09-07T05:25:56;100336.75;;;19.68;100.00
36788;BME280;22738;45.560;9.434;2023-09-07T05:32:39;100343.00;;;19.94;100.00
36788;BME280;22738;45.560;9.434;2023-09-07T05:39:22;100349.59;;;20.08;100.00
36788;BME280;22738;45.560;9.434;2023-09-07T05:46:03;100358.28;;;20.28;100.00
36788;BME280;22738;45.560;9.434;2023-09-07T05:52:44;100358.81;;;20.49;100.00
36788;BME280;22738;45.560;9.434;2023-09-07T05:59:25;100363.38;;;20.74;100.00
36788;BME280;22738;45.560;9.434;2023-09-07T06:06:06;100362.84;;;20.88;100.00
36788;BME280;22738;45.560;9.434;2023-09-07T06:12:47;100364.69;;;21.23;100.00
36788;BME280;22738;45.560;9.434;2023-09-07T06:19:29;100371.84;;;21.56;100.00
36788;BME280;22738;45.560;9.434;2023-09-07T06:26:10;100371.56;;;21.85;100.00
36788;BME280;22738;45.560;9.434;2023-09-07T06:32:51;100376.38;;;22.23;100.00
36788;BME280;22738;45.560;9.434;2023-09-07T06:39:33;100392.00;;;27.86;100.00
36788;BME280;22738;45.560;9.434;2023-09-07T06:46:14;100404.84;;;31.79;99.38
36788;BME280;22738;45.560;9.434;2023-09-07T06:52:55;100415.41;;;34.00;77.82
36788;BME280;22738;45.560;9.434;2023-09-07T06:59:37;100421.84;;;34.62;66.78
36788;BME280;22738;45.560;9.434;2023-09-07T07:06:18;100418.06;;;33.01;81.22
36788;BME280;22738;45.560;9.434;2023-09-07T07:13:00;100428.34;;;34.38;69.16
36788;BME280;22738;45.560;9.434;2023-09-07T07:19:42;100414.97;;;35.28;60.27
36788;BME280;22738;45.560;9.434;2023-09-07T07:26:24;100429.34;;;35.83;52.72
36788;BME280;22738;45.560;9.434;2023-09-07T07:33:06;100438.66;;;38.01;41.20
36788;BME280;22738;45.560;9.434;2023-09-07T07:39:50;100443.75;;;37.55;39.58
36788;BME280;22738;45.560;9.434;2023-09-07T07:46:32;100445.13;;;36.73;42.43
36788;BME280;22738;45.560;9.434;2023-09-07T07:53:13;100443.56;;;38.50;36.83
36788;BME280;22738;45.560;9.434;2023-09-07T07:59:56;100443.28;;;38.62;35.75
36788;BME280;22738;45.560;9.434;2023-09-07T08:06:37;100436.66;;;37.44;38.33
36788;BME280;22738;45.560;9.434;2023-09-07T08:13:18;100424.16;;;36.36;39.63
36788;BME280;22738;45.560;9.434;2023-09-07T08:20:01;100434.69;;;35.00;47.63
36788;BME280;22738;45.560;9.434;2023-09-07T08:26:43;100429.03;;;33.29;59.74
36788;BME280;22738;45.560;9.434;2023-09-07T08:33:24;100422.63;;;32.71;56.27
36788;BME280;22738;45.560;9.434;2023-09-07T08:40:09;100424.19;;;32.06;68.37
36788;BME280;22738;45.560;9.434;2023-09-07T08:46:51;100416.53;;;31.11;77.09
36788;BME280;22738;45.560;9.434;2023-09-07T08:53:33;100417.66;;;31.28;68.31
36788;BME280;22738;45.560;9.434;2023-09-07T09:00:14;100415.72;;;31.66;74.90
36788;BME280;22738;45.560;9.434;2023-09-07T09:06:57;100421.78;;;31.55;65.49
36788;BME280;22738;45.560;9.434;2023-09-07T09:13:39;100412.53;;;30.51;76.16
36788;BME280;22738;45.560;9.434;2023-09-07T09:20:21;100408.94;;;31.08;70.30
36788;BME280;22738;45.560;9.434;2023-09-07T09:27:03;100408.28;;;30.74;68.46
36788;BME280;22738;45.560;9.434;2023-09-07T09:33:48;100409.88;;;30.88;75.98
36788;BME280;22738;45.560;9.434;2023-09-07T09:40:33;100402.69;;;30.38;75.06
36788;BME280;22738;45.560;9.434;2023-09-07T09:47:15;100401.91;;;30.18;78.87
36788;BME280;22738;45.560;9.434;2023-09-07T09:53:56;100388.41;;;30.57;85.70
36788;BME280;22738;45.560;9.434;2023-09-07T10:00:37;100389.44;;;30.56;84.69
36788;BME280;22738;45.560;9.434;2023-09-07T10:07:19;100386.94;;;30.61;87.75
36788;BME280;22738;45.560;9.434;2023-09-07T10:14:00;100382.59;;;30.60;91.58
36788;BME280;22738;45.560;9.434;2023-09-07T10:20:50;100373.28;;;30.69;90.51
36788;BME280;22738;45.560;9.434;2023-09-07T10:27:38;100372.63;;;31.12;80.40
36788;BME280;22738;45.560;9.434;2023-09-07T10:34:20;100366.75;;;30.59;87.67
36788;BME280;22738;45.560;9.434;2023-09-07T10:41:03;100357.56;;;31.42;88.17
36788;BME280;22738;45.560;9.434;2023-09-07T10:47:45;100363.00;;;31.04;84.63
36788;BME280;22738;45.560;9.434;2023-09-07T10:54:26;100358.09;;;30.63;77.02
36788;BME280;22738;45.560;9.434;2023-09-07T11:01:07;100343.44;;;30.28;82.73
36788;BME280;22738;45.560;9.434;2023-09-07T11:07:49;100345.19;;;30.03;86.86
36788;BME280;22738;45.560;9.434;2023-09-07T11:14:30;100328.53;;;29.94;83.75
36788;BME280;22738;45.560;9.434;2023-09-07T11:21:11;100323.44;;;29.80;94.13
36788;BME280;22738;45.560;9.434;2023-09-07T11:27:52;100316.44;;;29.79;88.47
36788;BME280;22738;45.560;9.434;2023-09-07T11:34:48;100311.75;;;29.54;89.35
36788;BME280;22738;45.560;9.434;2023-09-07T11:41:32;100302.41;;;29.90;97.58
36788;BME280;22738;45.560;9.434;2023-09-07T11:48:13;100298.13;;;29.89;97.05
36788;BME280;22738;45.560;9.434;2023-09-07T11:54:54;100302.88;;;29.87;85.92
36788;BME280;22738;45.560;9.434;2023-09-07T12:01:35;100296.75;;;29.47;95.83
36788;BME280;22738;45.560;9.434;2023-09-07T12:08:16;100285.72;;;29.30;95.54
36788;BME280;22738;45.560;9.434;2023-09-07T12:14:57;100279.09;;;29.46;93.32
36788;BME280;22738;45.560;9.434;2023-09-07T12:21:38;100268.13;;;29.67;97.58
36788;BME280;22738;45.560;9.434;2023-09-07T12:28:19;100255.81;;;30.17;91.06
36788;BME280;22738;45.560;9.434;2023-09-07T12:35:01;100252.63;;;29.18;95.83
36788;BME280;22738;45.560;9.434;2023-09-07T12:41:41;100249.03;;;29.63;100.00
36788;BME280;22738;45.560;9.434;2023-09-07T12:48:22;100245.31;;;29.64;94.29
36788;BME280;22738;45.560;9.434;2023-09-07T12:55:05;100234.63;;;29.64;96.58
36788;BME280;22738;45.560;9.434;2023-09-07T13:01:46;100224.09;;;29.83;99.19
36788;BME280;22738;45.560;9.434;2023-09-07T13:08:28;100217.59;;;29.59;98.96
36788;BME280;22738;45.560;9.434;2023-09-07T13:15:10;100221.69;;;29.61;100.00
36788;BME280;22738;45.560;9.434;2023-09-07T13:21:51;100222.13;;;29.58;100.00
36788;BME280;22738;45.560;9.434;2023-09-07T13:28:32;100212.53;;;29.31;100.00
36788;BME280;22738;45.560;9.434;2023-09-07T13:35:13;100213.03;;;29.66;97.40
36788;BME280;22738;45.560;9.434;2023-09-07T13:41:53;100202.06;;;29.94;84.91
36788;BME280;22738;45.560;9.434;2023-09-07T13:48:34;100197.72;;;29.35;100.00
36788;BME280;22738;45.560;9.434;2023-09-07T13:55:15;100189.97;;;29.21;94.39
36788;BME280;22738;45.560;9.434;2023-09-07T14:01:57;100175.63;;;28.89;93.19
36788;BME280;22738;45.560;9.434;2023-09-07T14:08:37;100184.44;;;28.96;96.28
36788;BME280;22738;45.560;9.434;2023-09-07T14:15:18;100184.63;;;29.08;94.78
36788;BME280;22738;45.560;9.434;2023-09-07T14:21:59;100179.78;;;29.55;88.95
36788;BME280;22738;45.560;9.434;2023-09-07T14:28:40;100183.91;;;29.51;88.58
36788;BME280;22738;45.560;9.434;2023-09-07T14:35:21;100180.22;;;29.52;89.48
36788;BME280;22738;45.560;9.434;2023-09-07T14:42:02;100178.03;;;29.30;97.95
36788;BME280;22738;45.560;9.434;2023-09-07T14:48:43;100169.75;;;29.44;89.86
36788;BME280;22738;45.560;9.434;2023-09-07T14:55:24;100169.03;;;29.69;90.93
36788;BME280;22738;45.560;9.434;2023-09-07T15:02:05;100171.59;;;29.95;86.93
36788;BME280;22738;45.560;9.434;2023-09-07T15:08:46;100162.19;;;29.86;92.31
36788;BME280;22738;45.560;9.434;2023-09-07T15:15:28;100157.69;;;29.80;87.78
36788;BME280;22738;45.560;9.434;2023-09-07T15:22:09;100152.28;;;29.48;92.66
36788;BME280;22738;45.560;9.434;2023-09-07T15:28:50;100154.59;;;29.32;92.98
36788;BME280;22738;45.560;9.434;2023-09-07T15:35:32;100148.84;;;29.15;98.16
36788;BME280;22738;45.560;9.434;2023-09-07T15:42:13;100155.84;;;29.29;97.36
36788;BME280;22738;45.560;9.434;2023-09-07T15:48:54;100148.84;;;29.15;100.00
36788;BME280;22738;45.560;9.434;2023-09-07T15:55:35;100155.91;;;29.03;99.37
36788;BME280;22738;45.560;9.434;2023-09-07T16:02:15;100147.25;;;29.01;100.00
36788;BME280;22738;45.560;9.434;2023-09-07T16:08:56;100151.38;;;28.97;99.77
36788;BME280;22738;45.560;9.434;2023-09-07T16:15:37;100139.47;;;29.00;100.00
36788;BME280;22738;45.560;9.434;2023-09-07T16:22:18;100150.91;;;29.13;97.32
36788;BME280;22738;45.560;9.434;2023-09-07T16:28:59;100148.50;;;28.92;99.20
36788;BME280;22738;45.560;9.434;2023-09-07T16:35:40;100146.06;;;28.84;100.00
36788;BME280;22738;45.560;9.434;2023-09-07T16:42:21;100144.25;;;28.78;100.00
36788;BME280;22738;45.560;9.434;2023-09-07T16:49:02;100147.72;;;28.72;100.00
36788;BME280;22738;45.560;9.434;2023-09-07T16:55:43;100146.91;;;28.78;100.00
36788;BME280;22738;45.560;9.434;2023-09-07T17:02:24;100147.09;;;28.44;100.00
36788;BME280;22738;45.560;9.434;2023-09-07T17:09:05;100153.25;;;28.24;100.00
36788;BME280;22738;45.560;9.434;2023-09-07T17:15:49;100141.13;;;28.02;100.00
36788;BME280;22738;45.560;9.434;2023-09-07T17:22:31;100163.59;;;27.80;100.00
36788;BME280;22738;45.560;9.434;2023-09-07T17:29:12;100163.50;;;27.54;100.00
36788;BME280;22738;45.560;9.434;2023-09-07T17:35:53;100161.25;;;27.17;100.00
36788;BME280;22738;45.560;9.434;2023-09-07T17:42:36;100159.81;;;26.86;100.00
36788;BME280;22738;45.560;9.434;2023-09-07T17:49:16;100160.06;;;26.43;100.00
36788;BME280;22738;45.560;9.434;2023-09-07T17:55:57;100164.06;;;26.11;100.00
36788;BME280;22738;45.560;9.434;2023-09-07T18:02:38;100179.31;;;25.88;100.00
36788;BME280;22738;45.560;9.434;2023-09-07T18:09:20;100182.75;;;25.67;100.00
36788;BME280;22738;45.560;9.434;2023-09-07T18:16:01;100191.13;;;25.35;100.00
36788;BME280;22738;45.560;9.434;2023-09-07T18:22:42;100195.97;;;25.17;100.00
36788;BME280;22738;45.560;9.434;2023-09-07T18:29:23;100196.94;;;24.87;100.00
36788;BME280;22738;45.560;9.434;2023-09-07T18:36:04;100211.84;;;24.65;100.00
36788;BME280;22738;45.560;9.434;2023-09-07T18:42:45;100216.47;;;24.48;100.00
36788;BME280;22738;45.560;9.434;2023-09-07T18:49:26;100226.69;;;24.29;100.00
36788;BME280;22738;45.560;9.434;2023-09-07T18:56:09;100231.72;;;24.24;100.00
36788;BME280;22738;45.560;9.434;2023-09-07T19:02:50;100234.06;;;24.19;100.00
36788;BME280;22738;45.560;9.434;2023-09-07T19:09:31;100233.06;;;24.20;100.00
36788;BME280;22738;45.560;9.434;2023-09-07T19:16:13;100245.28;;;23.90;100.00
36788;BME280;22738;45.560;9.434;2023-09-07T19:22:54;100242.16;;;23.86;100.00
36788;BME280;22738;45.560;9.434;2023-09-07T19:29:35;100248.50;;;23.69;100.00
36788;BME280;22738;45.560;9.434;2023-09-07T19:36:16;100253.91;;;23.45;100.00
36788;BME280;22738;45.560;9.434;2023-09-07T19:42:57;100259.19;;;23.29;100.00
36788;BME280;22738;45.560;9.434;2023-09-07T19:49:38;100262.19;;;23.18;100.00
36788;BME280;22738;45.560;9.434;2023-09-07T19:56:21;100278.25;;;22.92;100.00
36788;BME280;22738;45.560;9.434;2023-09-07T20:03:04;100284.03;;;23.12;100.00
36788;BME280;22738;45.560;9.434;2023-09-07T20:09:45;100288.78;;;23.24;100.00
36788;BME280;22738;45.560;9.434;2023-09-07T20:16:25;100290.94;;;23.29;100.00
36788;BME280;22738;45.560;9.434;2023-09-07T20:23:06;100296.25;;;23.21;100.00
36788;BME280;22738;45.560;9.434;2023-09-07T20:29:49;100297.91;;;23.14;100.00
36788;BME280;22738;45.560;9.434;2023-09-07T20:36:30;100308.84;;;23.03;100.00
36788;BME280;22738;45.560;9.434;2023-09-07T20:43:11;100313.13;;;23.04;100.00
36788;BME280;22738;45.560;9.434;2023-09-07T20:49:52;100314.47;;;22.92;100.00
36788;BME280;22738;45.560;9.434;2023-09-07T20:56:33;100321.25;;;22.94;100.00
36788;BME280;22738;45.560;9.434;2023-09-07T21:03:14;100320.06;;;22.89;100.00
36788;BME280;22738;45.560;9.434;2023-09-07T21:09:54;100322.19;;;22.77;100.00
36788;BME280;22738;45.560;9.434;2023-09-07T21:16:35;100315.09;;;22.69;100.00
36788;BME280;22738;45.560;9.434;2023-09-07T21:23:17;100318.22;;;22.65;100.00
36788;BME280;22738;45.560;9.434;2023-09-07T21:29:58;100328.28;;;22.61;100.00
36788;BME280;22738;45.560;9.434;2023-09-07T21:36:38;100334.22;;;22.55;100.00
36788;BME280;22738;45.560;9.434;2023-09-07T21:43:20;100343.09;;;22.46;100.00
36788;BME280;22738;45.560;9.434;2023-09-07T21:50:01;100338.50;;;22.48;100.00
36788;BME280;22738;45.560;9.434;2023-09-07T21:56:43;100339.09;;;22.42;100.00
36788;BME280;22738;45.560;9.434;2023-09-07T22:03:24;100332.81;;;22.35;100.00
36788;BME280;22738;45.560;9.434;2023-09-07T22:10:05;100335.94;;;22.31;100.00
36788;BME280;22738;45.560;9.434;2023-09-07T22:16:46;100339.06;;;22.26;100.00
36788;BME280;22738;45.560;9.434;2023-09-07T22:23:27;100342.72;;;22.25;100.00
36788;BME280;22738;45.560;9.434;2023-09-07T22:30:09;100332.06;;;22.09;100.00
36788;BME280;22738;45.560;9.434;2023-09-07T22:36:52;100327.94;;;22.07;100.00
36788;BME280;22738;45.560;9.434;2023-09-07T22:43:33;100330.09;;;22.03;100.00
36788;BME280;22738;45.560;9.434;2023-09-07T22:50:15;100329.94;;;22.13;100.00
36788;BME280;22738;45.560;9.434;2023-09-07T22:56:55;100339.97;;;22.01;100.00
36788;BME280;22738;45.560;9.434;2023-09-07T23:03:36;100346.03;;;21.93;100.00
36788;BME280;22738;45.560;9.434;2023-09-07T23:10:17;100345.50;;;21.90;100.00
36788;BME280;22738;45.560;9.434;2023-09-07T23:17:01;100344.19;;;21.86;100.00
36788;BME280;22738;45.560;9.434;2023-09-07T23:23:42;100345.75;;;21.79;100.00
36788;BME280;22738;45.560;9.434;2023-09-07T23:30:23;100348.78;;;21.84;100.00
36788;BME280;22738;45.560;9.434;2023-09-07T23:37:05;100342.69;;;21.83;100.00
36788;BME280;22738;45.560;9.434;2023-09-07T23:43:46;100347.91;;;21.75;100.00
36788;BME280;22738;45.560;9.434;2023-09-07T23:50:27;100342.41;;;21.69;100.00
36788;BME280;22738;45.560;9.434;2023-09-07T23:57:08;100333.13;;;21.65;100.00
